createdAt,value
2023-02-08T00:00:59.108Z,92.00
2023-02-08T00:03:28.914Z,95.47
2023-02-08T00:05:56.105Z,104.80
2023-02-08T00:08:23.232Z,102.33
2023-02-08T00:10:50.795Z,91.57
2023-02-08T00:13:17.951Z,92.13
2023-02-08T00:15:46.677Z,96.90
2023-02-08T00:18:14.565Z,91.10
2023-02-08T00:20:44.776Z,80.27
2023-02-08T00:23:13.904Z,71.33
2023-02-08T00:25:41.990Z,65.77
2023-02-08T00:28:14.491Z,66.97
2023-02-08T00:30:43.463Z,71.80
2023-02-08T00:33:11.616Z,61.80
2023-02-08T00:35:42.302Z,64.63
2023-02-08T00:38:09.425Z,53.13
2023-02-08T00:40:36.692Z,51.07
2023-02-08T00:43:03.898Z,63.73
2023-02-08T00:45:32.967Z,49.13
2023-02-08T00:48:00.288Z,40.33
2023-02-08T00:50:27.384Z,39.03
2023-02-08T00:52:54.412Z,42.50
2023-02-08T00:55:21.688Z,68.07
2023-02-08T00:57:48.752Z,43.57
2023-02-08T01:00:16.112Z,33.47
2023-02-08T01:02:43.180Z,99.50
2023-02-08T01:05:11.978Z,167.03
2023-02-08T01:07:40.594Z,55.17
2023-02-08T01:10:12.366Z,43.47
2023-02-08T01:12:41.107Z,133.63
2023-02-08T01:15:09.043Z,60.70
2023-02-08T01:17:36.207Z,48.00
2023-02-08T01:20:04.160Z,55.40
2023-02-08T01:22:31.266Z,36.53
2023-02-08T01:25:01.175Z,26.77
2023-02-08T01:27:28.503Z,34.40
2023-02-08T01:29:55.613Z,30.20
2023-02-08T01:32:22.636Z,31.30
2023-02-08T01:34:49.721Z,36.33
2023-02-08T01:37:16.760Z,33.47
2023-02-08T01:39:43.893Z,32.33
2023-02-08T01:42:15.177Z,32.77
2023-02-08T01:45:15.347Z,27.90
2023-02-08T01:47:45.545Z,32.33
2023-02-08T01:50:14.837Z,29.10
2023-02-08T01:52:43.990Z,29.37
2023-02-08T01:55:27.256Z,30.27
2023-02-08T01:58:00.117Z,31.17
2023-02-08T02:00:27.817Z,24.93
2023-02-08T02:02:56.979Z,31.20
2023-02-08T02:05:29.951Z,29.90
2023-02-08T02:08:00.320Z,27.47
2023-02-08T02:10:32.410Z,29.27
2023-02-08T02:13:08.717Z,30.17
2023-02-08T02:15:35.929Z,32.43
2023-02-08T02:18:07.032Z,31.33
2023-02-08T02:20:52.173Z,27.00
2023-02-08T02:24:23.876Z,25.37
2023-02-08T02:27:37.254Z,23.60
2023-02-08T02:30:31.204Z,31.60
2023-02-08T02:33:13.468Z,30.37
2023-02-08T02:35:56.224Z,27.97
2023-02-08T02:38:56.358Z,28.80
2023-02-08T02:41:59.524Z,35.30
2023-02-08T02:44:45.932Z,34.93
2023-02-08T02:47:28.283Z,32.17
2023-02-08T02:50:07.638Z,35.73
2023-02-08T02:52:46.356Z,29.17
2023-02-08T02:55:17.524Z,29.60
2023-02-08T02:57:47.183Z,28.30
2023-02-08T03:00:23.649Z,28.50
2023-02-08T03:02:50.964Z,29.33
2023-02-08T03:05:18.158Z,32.37
2023-02-08T03:08:17.512Z,27.43
2023-02-08T03:11:01.057Z,29.63
2023-02-08T03:14:14.145Z,28.33
2023-02-08T03:16:59.609Z,22.73
2023-02-08T03:20:05.826Z,24.73
2023-02-08T03:23:01.681Z,29.60
2023-02-08T03:25:51.636Z,20.20
2023-02-08T03:28:56.764Z,22.33
2023-02-08T03:31:43.229Z,26.37
2023-02-08T03:34:46.762Z,21.53
2023-02-08T03:37:39.157Z,24.90
2023-02-08T03:40:28.325Z,25.10
2023-02-08T03:42:59.537Z,23.90
2023-02-08T03:45:40.716Z,26.50
2023-02-08T03:48:11.564Z,22.17
2023-02-08T03:50:41.161Z,21.87
2023-02-08T03:53:10.590Z,20.77
2023-02-08T03:55:39.030Z,23.87
2023-02-08T03:58:39.035Z,22.60
2023-02-08T04:01:32.334Z,21.43
2023-02-08T04:04:00.861Z,21.03
2023-02-08T04:06:28.349Z,22.90
2023-02-08T04:08:56.114Z,22.00
2023-02-08T04:11:23.324Z,25.40
2023-02-08T04:13:50.379Z,21.37
2023-02-08T04:16:17.432Z,24.47
2023-02-08T04:18:44.501Z,19.63
2023-02-08T04:21:11.551Z,22.47
2023-02-08T04:23:38.586Z,24.93
2023-02-08T04:26:07.664Z,23.97
2023-02-08T04:28:35.257Z,19.07
2023-02-08T04:31:02.425Z,24.87
2023-02-08T04:33:29.525Z,22.73
2023-02-08T04:35:56.607Z,25.17
2023-02-08T04:38:23.684Z,21.13
2023-02-08T04:40:50.718Z,28.00
2023-02-08T04:43:17.797Z,29.13
2023-02-08T04:45:44.832Z,27.83
2023-02-08T04:48:12.126Z,29.87
2023-02-08T04:50:39.621Z,27.33
2023-02-08T04:53:07.125Z,27.37
2023-02-08T04:55:34.537Z,31.77
2023-02-08T04:58:01.995Z,31.20
2023-02-08T05:00:29.425Z,27.10
2023-02-08T05:02:58.752Z,30.63
2023-02-08T05:05:28.243Z,27.33
2023-02-08T05:07:58.352Z,27.37
2023-02-08T05:10:26.189Z,30.67
2023-02-08T05:12:53.629Z,30.47
2023-02-08T05:15:20.791Z,35.70
2023-02-08T05:17:47.996Z,32.87
2023-02-08T05:20:15.419Z,29.93
2023-02-08T05:22:42.498Z,34.17
2023-02-08T05:25:10.030Z,28.13
2023-02-08T05:27:37.619Z,35.47
2023-02-08T05:30:05.684Z,29.17
2023-02-08T05:32:32.722Z,39.00
2023-02-08T05:34:59.776Z,34.73
2023-02-08T05:37:26.897Z,29.90
2023-02-08T05:39:54.077Z,36.77
2023-02-08T05:42:21.277Z,36.27
2023-02-08T05:44:48.417Z,33.67
2023-02-08T05:47:15.508Z,35.00
2023-02-08T05:49:42.574Z,32.60
2023-02-08T05:52:09.633Z,36.80
2023-02-08T05:54:36.677Z,35.03
2023-02-08T05:57:03.753Z,36.07
2023-02-08T05:59:30.817Z,39.00
2023-02-08T06:01:57.885Z,34.70
2023-02-08T06:04:24.991Z,48.77
2023-02-08T06:06:52.058Z,76.80
2023-02-08T06:09:22.131Z,86.70
2023-02-08T06:11:49.182Z,81.03
2023-02-08T06:14:16.470Z,72.50
2023-02-08T06:16:43.661Z,68.77
2023-02-08T06:19:10.760Z,53.40
2023-02-08T06:21:37.795Z,48.23
2023-02-08T06:24:06.803Z,50.97
2023-02-08T06:26:34.609Z,42.90
2023-02-08T06:29:01.748Z,47.30
2023-02-08T06:31:28.848Z,41.67
2023-02-08T06:33:55.905Z,39.83
2023-02-08T06:36:23.021Z,41.90
2023-02-08T06:38:51.322Z,42.47
2023-02-08T06:41:18.649Z,38.03
2023-02-08T06:43:45.723Z,42.87
2023-02-08T06:46:12.862Z,43.97
2023-02-08T06:48:39.943Z,38.63
2023-02-08T06:51:07.079Z,44.60
2023-02-08T06:53:34.310Z,38.53
2023-02-08T06:56:01.352Z,49.73
2023-02-08T06:58:28.447Z,47.53
2023-02-08T07:00:55.526Z,45.37
2023-02-08T07:03:22.718Z,49.47
2023-02-08T07:06:04.065Z,40.83
2023-02-08T07:08:34.224Z,46.83
2023-02-08T07:11:11.100Z,48.30
2023-02-08T07:13:39.081Z,47.10
2023-02-08T07:16:08.145Z,47.13
2023-02-08T07:18:36.230Z,48.33
2023-02-08T07:21:03.560Z,53.57
2023-02-08T07:23:30.819Z,46.63
2023-02-08T07:26:07.520Z,39.73
2023-02-08T07:28:35.156Z,47.77
2023-02-08T07:31:11.323Z,48.23
2023-02-08T07:33:39.012Z,46.70
2023-02-08T07:36:07.661Z,52.43
2023-02-08T07:38:35.322Z,45.73
2023-02-08T07:41:10.360Z,49.67
2023-02-08T07:43:39.712Z,53.77
2023-02-08T07:46:19.806Z,52.10
2023-02-08T07:48:49.943Z,45.83
2023-02-08T07:51:17.016Z,42.20
2023-02-08T07:53:44.363Z,51.70
2023-02-08T07:56:11.516Z,47.27
2023-02-08T07:58:39.223Z,46.20
2023-02-08T08:01:19.987Z,48.07
2023-02-08T08:03:49.064Z,41.17
2023-02-08T08:06:16.166Z,46.70
2023-02-08T08:08:47.358Z,41.67
2023-02-08T08:11:20.224Z,47.67
2023-02-08T08:13:47.481Z,48.30
2023-02-08T08:16:14.948Z,39.53
2023-02-08T08:18:42.161Z,44.27
2023-02-08T08:21:09.697Z,49.30
2023-02-08T08:23:37.287Z,45.67
2023-02-08T08:26:20.369Z,41.33
2023-02-08T08:28:48.025Z,42.03
2023-02-08T08:31:18.911Z,44.90
2023-02-08T08:33:47.049Z,41.60
2023-02-08T08:36:14.968Z,48.53
2023-02-08T08:38:42.116Z,44.10
2023-02-08T08:41:17.171Z,42.43
2023-02-08T08:43:44.790Z,46.80
2023-02-08T08:46:12.175Z,45.57
2023-02-08T08:48:39.413Z,50.90
2023-02-08T08:51:07.378Z,51.13
2023-02-08T08:53:35.211Z,53.50
2023-02-08T08:56:02.559Z,58.60
2023-02-08T08:58:30.038Z,50.47
2023-02-08T09:01:01.312Z,47.90
2023-02-08T09:03:29.900Z,45.00
2023-02-08T09:05:57.468Z,45.03
2023-02-08T09:08:24.626Z,51.97
2023-02-08T09:10:51.697Z,51.70
2023-02-08T09:13:19.943Z,45.40
2023-02-08T09:15:48.953Z,46.13
2023-02-08T09:18:16.303Z,49.33
2023-02-08T09:20:44.023Z,48.80
2023-02-08T09:23:11.697Z,42.80
2023-02-08T09:25:38.852Z,41.03
2023-02-08T09:28:06.184Z,47.13
2023-02-08T09:30:33.532Z,45.57
2023-02-08T09:33:00.624Z,49.93
2023-02-08T09:35:27.677Z,49.10
2023-02-08T09:37:57.924Z,44.80
2023-02-08T09:40:41.807Z,36.50
2023-02-08T09:43:41.749Z,41.63
2023-02-08T09:46:17.266Z,47.47
2023-02-08T09:48:46.337Z,47.77
2023-02-08T09:51:22.607Z,45.47
2023-02-08T09:54:00.439Z,46.23
2023-02-08T09:56:36.372Z,47.40
2023-02-08T09:59:04.089Z,42.57
2023-02-08T10:01:36.188Z,49.33
2023-02-08T10:04:16.208Z,47.23
2023-02-08T10:06:43.390Z,47.67
2023-02-08T10:09:15.020Z,44.20
2023-02-08T10:12:16.455Z,45.07
2023-02-08T10:14:57.920Z,43.47
2023-02-08T10:17:57.089Z,43.53
2023-02-08T10:20:49.647Z,44.07
2023-02-08T10:24:04.107Z,40.90
2023-02-08T10:26:49.035Z,75.67
2023-02-08T10:29:37.983Z,36.93
2023-02-08T10:32:14.718Z,32.07
2023-02-08T10:35:00.478Z,38.67
2023-02-08T10:37:38.799Z,43.60
2023-02-08T10:40:18.370Z,36.87
2023-02-08T10:43:24.240Z,32.93
2023-02-08T10:46:29.455Z,37.37
2023-02-08T10:49:21.938Z,31.03
2023-02-08T10:51:49.415Z,28.67
2023-02-08T10:54:17.970Z,37.50
2023-02-08T10:56:57.579Z,33.00
2023-02-08T10:59:31.772Z,31.93
2023-02-08T11:01:59.924Z,32.73
2023-02-08T11:04:27.471Z,49.40
2023-02-08T11:06:54.982Z,38.00
2023-02-08T11:09:27.622Z,35.50
2023-02-08T11:11:56.421Z,19.27
2023-02-08T11:14:54.643Z,20.40
2023-02-08T11:17:29.260Z,24.83
2023-02-08T11:19:58.805Z,24.57
2023-02-08T11:22:31.236Z,23.27
2023-02-08T11:25:06.147Z,20.13
2023-02-08T11:27:36.805Z,27.50
2023-02-08T11:30:16.291Z,19.20
2023-02-08T11:32:47.001Z,19.20
2023-02-08T11:35:26.230Z,20.97
2023-02-08T11:37:57.422Z,24.27
2023-02-08T11:40:38.289Z,23.70
2023-02-08T11:43:05.922Z,23.47
2023-02-08T11:45:36.213Z,22.80
2023-02-08T11:48:07.326Z,22.43
2023-02-08T11:50:38.196Z,20.13
2023-02-08T11:53:36.555Z,17.40
2023-02-08T11:56:11.024Z,17.60
2023-02-08T11:58:38.071Z,17.77
2023-02-08T12:01:21.534Z,13.03
2023-02-08T12:03:50.783Z,17.80
2023-02-08T12:06:56.723Z,15.60
2023-02-08T12:09:59.822Z,14.23
2023-02-08T12:13:07.731Z,31.37
2023-02-08T12:16:00.159Z,9.67
2023-02-08T12:18:47.787Z,10.20
2023-02-08T12:21:35.830Z,9.80
2023-02-08T12:24:31.982Z,11.03
2023-02-08T12:27:17.365Z,13.33
2023-02-08T12:30:10.444Z,9.63
2023-02-08T12:33:01.849Z,8.37
2023-02-08T12:36:05.589Z,7.97
2023-02-08T12:39:17.751Z,7.33
2023-02-08T12:42:17.287Z,9.17
2023-02-08T12:45:06.372Z,8.23
2023-02-08T12:48:03.658Z,10.13
2023-02-08T12:50:41.251Z,7.90
2023-02-08T12:53:35.038Z,9.60
2023-02-08T12:56:10.554Z,17.80
2023-02-08T12:58:50.625Z,12.73
2023-02-08T13:01:30.044Z,18.20
2023-02-08T13:04:24.187Z,13.57
2023-02-08T13:06:59.955Z,12.53
2023-02-08T13:09:45.823Z,10.80
2023-02-08T13:12:28.207Z,12.33
2023-02-08T13:15:24.743Z,10.87
2023-02-08T13:18:32.729Z,11.53
2023-02-08T13:21:17.035Z,11.00
2023-02-08T13:23:52.713Z,14.17
2023-02-08T13:26:31.503Z,15.83
2023-02-08T13:29:02.523Z,10.70
2023-02-08T13:31:49.611Z,11.10
2023-02-08T13:34:39.166Z,11.33
2023-02-08T13:37:25.599Z,15.53
2023-02-08T13:40:06.916Z,16.33
2023-02-08T13:42:43.424Z,11.80
2023-02-08T13:45:28.718Z,14.57
2023-02-08T13:48:08.963Z,16.37
2023-02-08T13:50:57.135Z,14.93
2023-02-08T13:53:56.286Z,13.83
2023-02-08T13:56:45.297Z,16.43
2023-02-08T13:59:37.516Z,14.33
2023-02-08T14:02:23.090Z,13.50
2023-02-08T14:04:53.025Z,16.97
2023-02-08T14:07:42.751Z,18.73
2023-02-08T14:10:37.599Z,15.83
2023-02-08T14:13:29.437Z,19.17
2023-02-08T14:16:36.037Z,21.13
2023-02-08T14:19:24.570Z,18.90
2023-02-08T14:22:17.268Z,23.43
2023-02-08T14:24:49.772Z,19.30
2023-02-08T14:27:28.474Z,18.60
2023-02-08T14:30:18.384Z,17.90
2023-02-08T14:32:54.089Z,15.37
2023-02-08T14:35:27.658Z,16.63
2023-02-08T14:38:19.628Z,18.17
2023-02-08T14:40:57.492Z,20.37
2023-02-08T14:43:32.373Z,29.03
2023-02-08T14:46:37.834Z,35.33
2023-02-08T14:49:17.265Z,33.83
2023-02-08T14:52:09.630Z,32.10
2023-02-08T14:55:04.020Z,28.30
2023-02-08T14:57:35.736Z,26.90
2023-02-08T15:00:15.798Z,25.97
2023-02-08T15:02:48.547Z,22.53
2023-02-08T15:05:29.405Z,22.03
2023-02-08T15:08:02.026Z,24.60
2023-02-08T15:10:31.544Z,22.40
2023-02-08T15:13:03.931Z,26.03
2023-02-08T15:15:39.824Z,26.20
2023-02-08T15:18:19.089Z,24.43
2023-02-08T15:21:04.910Z,32.73
2023-02-08T15:23:32.471Z,31.83
2023-02-08T15:26:17.935Z,39.33
2023-02-08T15:28:45.402Z,40.57
2023-02-08T15:31:20.738Z,40.43
2023-02-08T15:33:48.158Z,39.17
2023-02-08T15:36:35.177Z,50.03
2023-02-08T15:39:38.558Z,58.33
2023-02-08T15:42:13.878Z,51.87
2023-02-08T15:44:44.420Z,80.47
2023-02-08T15:47:20.268Z,80.27
2023-02-08T15:49:51.082Z,62.23
2023-02-08T15:52:22.974Z,90.43
2023-02-08T15:54:51.190Z,90.17
2023-02-08T15:57:38.828Z,85.90
2023-02-08T16:00:22.038Z,101.20
2023-02-08T16:02:57.273Z,111.37
2023-02-08T16:05:31.538Z,120.17
2023-02-08T16:08:00.176Z,124.43
2023-02-08T16:10:47.143Z,109.43
2023-02-08T16:13:34.221Z,104.90
2023-02-08T16:16:23.658Z,100.60
2023-02-08T16:19:01.652Z,98.87
2023-02-08T16:21:38.349Z,110.80
2023-02-08T16:24:14.260Z,95.03
2023-02-08T16:26:45.654Z,104.50
2023-02-08T16:29:39.574Z,92.90
2023-02-08T16:32:33.073Z,95.60
2023-02-08T16:35:01.458Z,105.33
2023-02-08T16:37:31.956Z,110.53
2023-02-08T16:40:51.275Z,157.10
2023-02-08T16:43:31.825Z,96.30
2023-02-08T16:46:22.331Z,99.20
2023-02-08T16:48:50.837Z,95.20
2023-02-08T16:51:28.173Z,95.63
2023-02-08T16:54:01.140Z,96.37
2023-02-08T16:56:28.419Z,98.57
2023-02-08T16:58:55.515Z,85.57
2023-02-08T17:01:24.541Z,86.73
2023-02-08T17:03:53.158Z,92.07
2023-02-08T17:06:33.022Z,87.33
2023-02-08T17:09:03.852Z,85.67
2023-02-08T17:11:32.015Z,88.70
2023-02-08T17:13:59.318Z,91.67
2023-02-08T17:16:30.395Z,91.10
2023-02-08T17:19:01.103Z,87.80
2023-02-08T17:21:31.779Z,96.20
2023-02-08T17:23:59.833Z,86.77
2023-02-08T17:26:32.027Z,91.23
2023-02-08T17:28:59.715Z,90.73
2023-02-08T17:31:29.735Z,94.40
2023-02-08T17:34:04.212Z,106.60
2023-02-08T17:36:37.017Z,93.37
2023-02-08T17:39:05.911Z,93.40
2023-02-08T17:41:35.753Z,88.30
2023-02-08T17:44:04.224Z,92.43
2023-02-08T17:46:31.930Z,86.33
2023-02-08T17:49:01.724Z,86.13
2023-02-08T17:51:29.320Z,71.87
2023-02-08T17:53:56.902Z,75.23
2023-02-08T17:56:27.436Z,75.70
2023-02-08T17:58:55.925Z,75.13
2023-02-08T18:01:27.117Z,69.60
2023-02-08T18:03:54.617Z,66.67
2023-02-08T18:06:23.908Z,68.33
2023-02-08T18:08:52.677Z,80.37
2023-02-08T18:11:21.065Z,74.17
2023-02-08T18:13:50.876Z,82.90
2023-02-08T18:16:24.768Z,76.40
2023-02-08T18:18:55.351Z,73.33
2023-02-08T18:21:25.577Z,82.60
2023-02-08T18:23:55.657Z,87.60
2023-02-08T18:26:25.420Z,82.10
2023-02-08T18:28:53.279Z,87.80
2023-02-08T18:31:21.582Z,99.00
2023-02-08T18:33:50.283Z,107.00
2023-02-08T18:36:18.960Z,94.37
2023-02-08T18:38:48.800Z,110.80
2023-02-08T18:41:23.391Z,113.83
2023-02-08T18:43:51.168Z,90.00
2023-02-08T18:46:21.668Z,116.43
2023-02-08T18:48:50.610Z,102.10
2023-02-08T18:51:19.893Z,101.50
2023-02-08T18:53:53.656Z,91.47
2023-02-08T18:56:24.119Z,93.60
2023-02-08T18:58:55.661Z,95.00
2023-02-08T19:01:24.986Z,90.57
2023-02-08T19:03:52.935Z,81.40
2023-02-08T19:06:24.816Z,97.80
2023-02-08T19:08:54.936Z,101.47
2023-02-08T19:11:29.070Z,97.87
2023-02-08T19:13:59.233Z,98.83
2023-02-08T19:16:27.705Z,109.83
2023-02-08T19:18:59.630Z,109.00
2023-02-08T19:21:27.616Z,120.77
2023-02-08T19:23:58.085Z,115.30
2023-02-08T19:26:29.734Z,118.97
2023-02-08T19:29:00.591Z,109.60
2023-02-08T19:31:28.425Z,119.53
2023-02-08T19:33:58.962Z,108.23
2023-02-08T19:36:51.702Z,123.60
2023-02-08T19:39:25.923Z,148.53
2023-02-08T19:41:54.258Z,151.27
2023-02-08T19:44:22.752Z,143.53
2023-02-08T19:46:54.963Z,139.83
2023-02-08T19:49:25.851Z,147.43
2023-02-08T19:51:53.509Z,154.13
2023-02-08T19:54:21.500Z,144.90
2023-02-08T19:56:54.607Z,178.93
2023-02-08T19:59:28.331Z,191.50
2023-02-08T20:01:55.953Z,231.23
2023-02-08T20:04:23.840Z,212.60
2023-02-08T20:06:53.255Z,190.50
2023-02-08T20:09:20.733Z,155.90
2023-02-08T20:11:57.877Z,169.70
2023-02-08T20:14:29.193Z,167.93
2023-02-08T20:16:57.569Z,145.87
2023-02-08T20:19:25.289Z,130.83
2023-02-08T20:21:52.619Z,150.80
2023-02-08T20:24:20.298Z,147.73
2023-02-08T20:26:48.506Z,122.17
2023-02-08T20:29:16.092Z,139.83
2023-02-08T20:31:47.644Z,137.57
2023-02-08T20:34:17.274Z,126.77
2023-02-08T20:36:49.828Z,117.97
2023-02-08T20:39:24.765Z,114.33
2023-02-08T20:41:51.820Z,106.17
2023-02-08T20:44:19.181Z,96.73
2023-02-08T20:46:46.722Z,100.97
2023-02-08T20:49:17.523Z,94.70
2023-02-08T20:51:44.603Z,106.37
2023-02-08T20:54:11.954Z,98.27
2023-02-08T20:56:39.732Z,100.73
2023-02-08T20:59:10.093Z,92.03
2023-02-08T21:01:37.605Z,85.17
2023-02-08T21:04:05.511Z,82.53
2023-02-08T21:06:35.681Z,85.73
2023-02-08T21:09:08.324Z,88.97
2023-02-08T21:11:36.192Z,92.10
2023-02-08T21:14:05.150Z,102.50
2023-02-08T21:16:33.069Z,91.93
2023-02-08T21:19:00.561Z,96.33
2023-02-08T21:21:28.507Z,113.10
2023-02-08T21:23:57.840Z,116.87
2023-02-08T21:26:26.174Z,157.07
2023-02-08T21:28:56.903Z,144.93
2023-02-08T21:31:25.458Z,159.03
2023-02-08T21:33:53.135Z,158.10
2023-02-08T21:36:23.419Z,136.57
2023-02-08T21:38:51.134Z,129.97
2023-02-08T21:41:28.052Z,140.40
2023-02-08T21:43:58.850Z,126.03
2023-02-08T21:46:27.882Z,138.23
2023-02-08T21:49:14.601Z,122.83
2023-02-08T21:52:01.159Z,127.97
2023-02-08T21:54:42.389Z,135.37
2023-02-08T21:57:26.256Z,126.83
2023-02-08T21:59:58.160Z,114.43
2023-02-08T22:02:28.792Z,115.97
2023-02-08T22:05:17.086Z,125.13
2023-02-08T22:07:54.886Z,109.63
2023-02-08T22:10:29.586Z,124.17
2023-02-08T22:12:57.752Z,125.30
2023-02-08T22:15:28.682Z,117.13
2023-02-08T22:17:59.894Z,121.43
2023-02-08T22:20:27.718Z,118.10
2023-02-08T22:22:55.520Z,125.63
2023-02-08T22:25:27.727Z,104.50
2023-02-08T22:27:54.954Z,108.63
2023-02-08T22:30:25.395Z,114.40
2023-02-08T22:32:52.806Z,102.03
2023-02-08T22:35:20.103Z,109.80
2023-02-08T22:37:47.214Z,106.93
2023-02-08T22:40:14.284Z,105.33
2023-02-08T22:42:42.333Z,110.83
2023-02-08T22:45:10.857Z,110.60
2023-02-08T22:47:38.648Z,109.43
2023-02-08T22:50:07.537Z,89.67
2023-02-08T22:52:34.852Z,97.10
2023-02-08T22:55:04.121Z,91.77
2023-02-08T22:57:33.687Z,97.80
2023-02-08T23:00:01.357Z,99.57
2023-02-08T23:02:28.682Z,95.20
2023-02-08T23:04:55.778Z,89.60
2023-02-08T23:07:23.060Z,83.10
2023-02-08T23:09:50.162Z,82.27
2023-02-08T23:12:17.612Z,82.93
2023-02-08T23:14:44.713Z,77.27
2023-02-08T23:17:11.840Z,97.67
2023-02-08T23:19:40.660Z,80.30
2023-02-08T23:22:08.668Z,104.10
2023-02-08T23:24:35.879Z,115.57
2023-02-08T23:27:04.206Z,113.13
2023-02-08T23:29:33.661Z,107.80
2023-02-08T23:32:00.772Z,83.43
2023-02-08T23:34:27.933Z,90.33
2023-02-08T23:36:55.045Z,127.07
2023-02-08T23:39:22.242Z,126.23
2023-02-08T23:41:49.357Z,113.50
2023-02-08T23:44:16.424Z,161.33
2023-02-08T23:46:43.635Z,156.70
2023-02-08T23:49:10.860Z,122.80
2023-02-08T23:51:38.035Z,111.33
